Latest Weather Observations for Mandora

IDW60801

Issued at 10:43 pm WST Saturday 2 July 2022 (issued every 10 minutes, with the page automatically refreshed every 10 minutes)

About weather observations | Map of weather stations | Latest weather observations for WA | Other Formats
Station Details ID: 004019 Name: MANDORA Lat: -19.74 Lon: 120.84 Height: 7.5 m
Data from the previous 72 hours. | See also: Recent months at Mandora
Date/Time
WST
Temp
°C
App
Temp
°C
Dew
Point
°C
Rel
Hum
%
Delta-T
°C
Wind Press
QNH
hPa
Press
MSL
hPa
Rain since
9am
mm
Dir  Spd
km/h
Gust
km/h
Spd
kts
Gust
kts
02/10:30pm 16.0 11.6 0.6 35 6.6 SE 13 19 7 10 1018.5 1018.4 0.0
02/10:00pm 17.0 12.6 0.6 33 7.1 SE 13 20 7 11 1018.6 1018.5 0.0
02/09:30pm 17.0 13.0 0.6 33 7.1 SE 11 19 6 10 1018.4 1018.3 0.0
02/09:00pm 17.8 13.4 0.5 31 7.6 SE 13 20 7 11 1018.2 1018.1 0.0
02/08:30pm 18.5 13.8 0.6 30 7.9 SE 15 22 8 12 1017.9 1017.8 0.0
02/08:00pm 18.6 14.3 0.7 30 7.9 SE 13 20 7 11 1017.8 1017.7 0.0
02/07:30pm 18.3 14.4 0.9 31 7.7 SE 11 17 6 9 1017.6 1017.5 0.0
02/07:00pm 18.3 14.4 1.3 32 7.6 SE 11 15 6 8 1017.3 1017.2 0.0
02/06:30pm 19.2 15.7 1.2 30 8.1 SE 9 17 5 9 1016.8 1016.7 0.0
02/06:00pm 21.2 17.6 0.4 25 9.3 SE 9 15 5 8 1016.4 1016.3 0.0
02/05:30pm 22.9 18.1 0.1 22 10.3 SE 15 22 8 12 1015.9 1015.8 0.0
02/05:00pm 24.1 18.5 -0.2 20 11.0 SE 19 35 10 19 1015.5 1015.4 0.0
02/04:30pm 24.9 19.2 0.4 20 11.3 ESE 20 32 11 17 1015.5 1015.4 0.0
02/04:00pm 25.4 19.3 0.1 19 11.7 ESE 22 35 12 19 1015.3 1015.2 0.0
02/03:30pm 25.9 19.8 0.5 19 11.9 ESE 22 35 12 19 1015.4 1015.3 0.0
02/03:00pm 26.0 20.4 1.3 20 11.7 ESE 20 33 11 18 1015.4 1015.3 0.0
02/02:30pm 25.4 19.0 0.8 20 11.5 ESE 24 39 13 21 1015.6 1015.5 0.0
02/02:00pm 26.1 20.6 2.1 21 11.6 ESE 20 39 11 21 1015.7 1015.6 0.0
02/01:30pm 26.1 20.6 2.1 21 11.6 ESE 20 33 11 18 1016.0 1015.9 0.0
02/01:00pm 25.8 19.7 2.5 22 11.3 ESE 24 43 13 23 1016.4 1016.3 0.0
02/12:30pm 25.4 19.6 2.2 22 11.1 ESE 22 41 12 22 1016.9 1016.8 0.0
02/12:00pm 24.6 18.5 2.7 24 10.5 E 24 41 13 22 1017.5 1017.4 0.0
02/11:30am 24.3 17.9 3.0 25 10.3 E 26 44 14 24 1018.1 1018.0 0.0
02/11:00am 24.1 18.8 2.9 25 10.2 ESE 20 35 11 19 1018.6 1018.5 0.0
02/10:30am 22.4 16.2 2.0 26 9.6 E 24 35 13 19 1019.1 1019.0 0.0
02/10:00am 21.5 15.1 1.2 26 9.3 ESE 24 41 13 22 1019.4 1019.3 0.0
02/09:30am 20.8 14.5 1.6 28 8.8 ESE 24 39 13 21 1019.5 1019.4 0.0
02/09:00am 19.5 12.8 1.5 30 8.1 ESE 26 44 14 24 1019.7 1019.6 0.0
02/08:30am 18.4 12.5 1.4 32 7.6 ESE 22 41 12 22 1019.8 1019.7 0.0
02/08:00am 17.3 11.0 1.3 34 7.1 ESE 24 39 13 21 1019.6 1019.5 0.0
02/07:30am 16.0 10.0 1.3 37 6.4 ESE 22 35 12 19 1019.3 1019.2 0.0
02/07:00am 15.1 9.5 1.3 39 6.0 SE 20 33 11 18 1019.1 1019.0 0.0
02/06:30am 14.9 9.3 1.1 39 6.0 SE 20 33 11 18 1018.8 1018.7 0.0
02/06:00am 15.1 9.7 1.3 39 6.0 SE 19 33 10 18 1018.6 1018.5 0.0
02/05:30am 15.3 9.7 1.1 38 6.2 ESE 20 35 11 19 1018.2 1018.1 0.0
02/05:00am 15.6 10.0 1.0 37 6.3 SE 20 32 11 17 1018.2 1018.1 0.0
02/04:30am 15.7 10.3 1.1 37 6.4 ESE 19 30 10 16 1017.9 1017.8 0.0
02/04:00am 16.0 10.4 1.0 36 6.5 ESE 20 28 11 15 1018.1 1018.0 0.0
02/03:30am 16.2 10.5 0.7 35 6.7 SE 20 35 11 19 1018.1 1018.0 0.0
02/03:00am 16.2 10.7 0.7 35 6.7 ESE 19 30 10 16 1018.2 1018.1 0.0
02/02:30am 15.7 10.6 0.7 36 6.5 SE 17 28 9 15 1018.5 1018.4 0.0
02/02:00am 16.0 10.9 1.0 36 6.5 SE 17 28 9 15 1019.0 1018.9 0.0
02/01:30am 16.0 10.9 1.0 36 6.5 SE 17 32 9 17 1019.2 1019.1 0.0
02/01:00am 16.3 10.8 0.8 35 6.7 SE 19 32 10 17 1019.6 1019.5 0.0
02/12:30am 16.5 11.4 0.6 34 6.9 SE 17 30 9 16 1019.7 1019.6 0.0
02/12:00am 16.8 11.3 0.5 33 7.0 SE 19 33 10 18 1019.6 1019.5 0.0
 
Date/Time
WST
Temp
°C
App
Temp
°C
Dew
Point
°C
Rel
Hum
%
Delta-T
°C
Wind Press
QNH
hPa
Press
MSL
hPa
Rain since
9am
mm
Dir  Spd
km/h
Gust
km/h
Spd
kts
Gust
kts
01/11:30pm 17.2 11.7 0.4 32 7.3 SE 19 33 10 18 1019.8 1019.7 0.0
01/11:00pm 17.3 12.5 0.5 32 7.3 SE 15 24 8 13 1019.7 1019.6 0.0
01/10:30pm 16.9 12.6 1.0 34 7.0 SE 13 20 7 11 1019.8 1019.7 0.0
01/10:00pm 16.0 12.1 1.3 37 6.4 SE 11 19 6 10 1019.9 1019.8 0.0
01/09:30pm 15.5 12.0 1.3 38 6.2 SE 9 15 5 8 1019.9 1019.8 0.0
01/09:00pm 15.9 12.4 1.2 37 6.4 SE 9 13 5 7 1019.7 1019.6 0.0
01/08:30pm 16.9 13.0 1.0 34 7.0 SE 11 17 6 9 1019.6 1019.5 0.0
01/08:00pm 17.9 14.4 1.0 32 7.5 SE 9 15 5 8 1019.5 1019.4 0.0
01/07:30pm 19.2 15.2 0.8 29 8.2 SE 11 20 6 11 1019.1 1019.0 0.0
01/07:00pm 19.8 15.5 0.8 28 8.5 SE 13 17 7 9 1018.5 1018.4 0.0
01/06:30pm 20.7 16.4 1.1 27 8.9 SE 13 20 7 11 1018.3 1018.2 0.0
01/06:00pm 21.8 17.1 0.9 25 9.5 SE 15 24 8 13 1017.9 1017.8 0.0
01/05:30pm 23.0 17.5 0.8 23 10.2 SE 19 35 10 19 1017.5 1017.4 0.0
01/05:00pm 24.2 18.6 1.2 22 10.7 SE 20 35 11 19 1017.2 1017.1 0.0
01/04:30pm 24.9 18.5 1.1 21 11.2 SE 24 39 13 21 1016.9 1016.8 0.0
01/04:00pm 25.5 20.0 1.6 21 11.3 ESE 20 33 11 18 1016.7 1016.6 0.0
01/03:30pm 25.6 19.6 1.0 20 11.6 SE 22 35 12 19 1016.6 1016.5 0.0
01/03:00pm 26.1 20.5 1.4 20 11.7 SE 20 35 11 19 1016.6 1016.5 0.0
01/02:30pm 25.6 18.7 0.3 19 11.8 ESE 26 39 14 21 1016.9 1016.8 0.0
01/02:00pm 25.7 19.3 1.1 20 11.6 ESE 24 41 13 22 1017.1 1017.0 0.0
01/01:30pm 25.8 19.2 1.8 21 11.5 ESE 26 41 14 22 1017.4 1017.3 0.0
01/01:00pm 25.0 18.4 1.8 22 11.0 ESE 26 39 14 21 1017.8 1017.7 0.0
01/12:30pm 24.7 18.5 2.2 23 10.8 ESE 24 39 13 21 1018.2 1018.1 0.0
01/12:00pm 24.1 17.5 2.3 24 10.4 ESE 26 41 14 22 1018.7 1018.6 0.0
01/11:32am 23.5 16.6 2.4 25 10.0 ESE 28 48 15 26 1019.1 1019.0 0.0
01/11:30am 23.4 16.7 1.7 24 10.2 ESE 26 48 14 26 1019.2 1019.1 0.0
01/11:00am 22.9 16.8 2.9 27 9.5 ESE 24 46 13 25 1019.7 1019.6 0.0
01/10:50am 22.5 15.6 2.6 27 9.4 ESE 28 46 15 25 1019.8 1019.7 0.0
01/10:30am 22.0 14.8 3.2 29 9.0 ESE 30 44 16 24 1020.0 1019.9 0.0
01/10:00am 21.1 15.1 3.3 31 8.4 ESE 24 37 13 20 1020.3 1020.2 0.0
01/09:30am 19.9 13.1 3.2 33 7.9 ESE 28 43 15 23 1020.6 1020.5 0.0
01/09:17am 19.7 12.9 3.0 33 7.8 ESE 28 46 15 25 1020.7 1020.6 0.0
01/09:00am 19.3 12.5 3.1 34 7.5 ESE 28 41 15 22 1020.8 1020.7 0.0
01/08:34am 18.1 11.3 3.2 37 6.9 SE 28 46 15 25 1020.7 1020.6 0.0
01/08:30am 18.1 11.8 3.6 38 6.8 SE 26 41 14 22 1020.7 1020.6 0.0
01/08:00am 16.6 11.4 3.3 41 6.1 SE 20 35 11 19 1020.7 1020.6 0.0
01/07:30am 15.2 9.9 3.0 44 5.5 SE 20 33 11 18 1020.4 1020.3 0.0
01/07:00am 14.4 9.2 2.3 44 5.3 SE 19 30 10 16 1020.2 1020.1 0.0
01/06:30am 14.3 8.8 1.9 43 5.4 SE 20 37 11 20 1019.9 1019.8 0.0
01/06:00am 14.6 8.7 1.8 42 5.6 SE 22 33 12 18 1019.7 1019.6 0.0
01/05:30am 14.7 9.2 1.6 41 5.7 SE 20 30 11 16 1019.6 1019.5 0.0
01/05:00am 15.1 9.8 1.6 40 5.9 SE 19 32 10 17 1019.4 1019.3 0.0
01/04:30am 15.3 9.9 1.4 39 6.1 SE 19 28 10 15 1019.4 1019.3 0.0
01/04:00am 15.8 10.4 1.5 38 6.3 SE 19 28 10 15 1019.4 1019.3 0.0
01/03:30am 16.1 11.1 1.4 37 6.5 SE 17 33 9 18 1019.4 1019.3 0.0
01/03:00am 16.3 11.7 1.6 37 6.5 SE 15 30 8 16 1019.5 1019.4 0.0
01/02:30am 16.5 11.9 1.8 37 6.5 SE 15 26 8 14 1019.6 1019.5 0.0
01/02:00am 17.0 12.1 1.8 36 6.8 SE 17 30 9 16 1019.7 1019.6 0.0
01/01:30am 17.4 12.2 2.2 36 6.9 SE 19 35 10 19 1019.7 1019.6 0.0
01/01:00am 17.4 12.5 2.2 36 6.8 SE 17 26 9 14 1019.9 1019.8 0.0
01/12:30am 17.3 12.9 2.5 37 6.7 SE 15 24 8 13 1020.0 1019.9 0.0
01/12:00am 17.7 13.6 2.5 36 6.9 SE 13 22 7 12 1019.9 1019.8 0.0
 
Date/Time
WST
Temp
°C
App
Temp
°C
Dew
Point
°C
Rel
Hum
%
Delta-T
°C
Wind Press
QNH
hPa
Press
MSL
hPa
Rain since
9am
mm
Dir  Spd
km/h
Gust
km/h
Spd
kts
Gust
kts
30/11:30pm 17.9 13.6 3.0 37 6.9 SE 15 26 8 14 1019.8 1019.7 0.0
30/11:00pm 18.1 13.7 2.8 36 7.0 SE 15 24 8 13 1019.7 1019.6 0.0
30/10:30pm 18.5 13.8 3.2 36 7.1 SE 17 32 9 17 1019.6 1019.5 0.0
30/10:00pm 18.8 14.8 3.0 35 7.3 SE 13 22 7 12 1019.6 1019.5 0.0
30/09:30pm 19.0 15.1 3.2 35 7.4 SE 13 26 7 14 1019.4 1019.3 0.0
30/09:00pm 19.2 15.3 3.4 35 7.4 SE 13 20 7 11 1019.1 1019.0 0.0
30/08:30pm 18.7 14.8 3.3 36 7.2 SE 13 19 7 10 1018.8 1018.7 0.0
30/08:00pm 18.6 15.4 3.3 36 7.1 SE 9 15 5 8 1018.5 1018.4 0.0
30/07:30pm 19.9 16.7 3.2 33 7.9 SE 9 17 5 9 1018.0 1017.9 0.0
30/07:00pm 20.8 16.8 3.1 31 8.3 SE 13 19 7 10 1017.6 1017.5 0.0
30/06:30pm 21.2 17.7 3.4 31 8.5 SE 11 15 6 8 1017.2 1017.1 0.0
30/06:00pm 22.3 18.4 3.4 29 9.1 SE 13 22 7 12 1016.9 1016.8 0.0
30/05:30pm 23.5 19.0 4.0 28 9.6 SE 17 28 9 15 1016.4 1016.3 0.0
30/05:00pm 24.5 19.5 3.8 26 10.2 SE 19 35 10 19 1016.0 1015.9 0.0
30/04:30pm 25.2 19.4 4.3 26 10.4 SE 24 37 13 20 1015.8 1015.7 0.0
30/04:00pm 25.7 20.1 3.6 24 10.9 SE 22 37 12 20 1015.8 1015.7 0.0
30/03:30pm 26.1 20.6 4.0 24 11.0 ESE 22 37 12 20 1015.7 1015.6 0.0
30/03:05pm 25.8 19.1 3.7 24 10.9 SE 28 46 15 25 1015.6 1015.5 0.0
30/03:00pm 26.0 20.2 4.5 25 10.8 ESE 24 37 13 20 1015.6 1015.5 0.0
30/02:30pm 26.2 20.3 4.1 24 11.1 SE 24 41 13 22 1015.7 1015.6 0.0
30/02:00pm 26.3 20.3 3.5 23 11.3 ESE 24 39 13 21 1016.0 1015.9 0.0
30/01:30pm 25.7 19.4 3.6 24 10.9 ESE 26 41 14 22 1016.2 1016.1 0.0
30/01:25pm 25.7 19.0 3.6 24 10.9 ESE 28 48 15 26 1016.3 1016.2 0.0
30/01:00pm 26.5 21.2 4.9 25 11.0 ESE 22 35 12 19 1016.5 1016.4 0.0
30/12:30pm 25.0 19.0 3.6 25 10.5 ESE 24 44 13 24 1017.1 1017.0 0.0
30/12:10pm 24.5 17.8 3.8 26 10.2 ESE 28 46 15 25 1017.5 1017.4 0.0
30/12:00pm 24.6 18.3 3.8 26 10.2 ESE 26 46 14 25 1017.7 1017.6 0.0
30/11:46am 24.3 17.6 3.6 26 10.1 ESE 28 46 15 25 1017.9 1017.8 0.0
30/11:30am 23.8 17.5 3.7 27 9.8 ESE 26 44 14 24 1018.1 1018.0 0.0
30/11:00am 23.1 16.4 3.6 28 9.4 ESE 28 46 15 25 1018.6 1018.5 0.0
30/10:30am 21.9 15.2 3.6 30 8.8 ESE 28 46 15 25 1019.0 1018.9 0.0
30/10:00am 20.7 14.0 3.4 32 8.2 SE 28 46 15 25 1019.4 1019.3 0.0
30/09:59am 20.8 14.1 3.5 32 8.2 SE 28 46 15 25 1019.4 1019.3 0.0
30/09:30am 20.1 14.1 3.3 33 7.9 ESE 24 41 13 22 1019.7 1019.6 0.0
30/09:00am 19.0 12.6 3.2 35 7.4 ESE 26 44 14 24 1019.7 1019.6 0.0
30/08:30am 18.1 12.1 3.2 37 6.9 SE 24 41 13 22 1019.8 1019.7 0.0
30/08:00am 16.9 10.8 2.5 38 6.5 SE 24 43 13 23 1019.5 1019.4 0.0
30/07:30am 16.1 10.7 2.2 39 6.2 SE 20 35 11 19 1019.1 1019.0 0.0
30/07:00am 15.7 10.1 1.4 38 6.2 SE 20 32 11 17 1018.9 1018.8 0.0
30/06:30am 15.6 10.0 1.0 37 6.3 SE 20 41 11 22 1018.6 1018.5 0.0
30/06:00am 15.7 10.0 0.3 35 6.6 SE 20 35 11 19 1018.2 1018.1 0.0
30/05:30am 15.9 10.7 0.1 34 6.7 SE 17 32 9 17 1018.1 1018.0 0.0
30/05:00am 16.2 11.0 -0.1 33 6.9 SE 17 24 9 13 1017.8 1017.7 0.0
30/04:30am 16.4 10.8 -0.3 32 7.1 SE 19 32 10 17 1017.7 1017.6 0.0
30/04:00am 16.7 11.4 -0.5 31 7.3 SE 17 26 9 14 1017.9 1017.8 0.0
30/03:30am 16.8 11.5 -0.9 30 7.5 SE 17 32 9 17 1017.7 1017.6 0.0
30/03:00am 17.2 11.3 -0.5 30 7.5 SE 20 32 11 17 1017.8 1017.7 0.0
30/02:30am 17.5 11.6 -0.7 29 7.7 SE 20 30 11 16 1017.8 1017.7 0.0
30/02:00am 17.8 11.9 -0.5 29 7.8 SE 20 35 11 19 1017.8 1017.7 0.0
30/01:30am 18.0 12.4 0.2 30 7.8 SE 19 28 10 15 1018.0 1017.9 0.0
30/01:00am 18.0 12.5 0.6 31 7.6 SE 19 35 10 19 1018.0 1017.9 0.0
30/12:30am 17.9 13.2 1.0 32 7.5 SE 15 26 8 14 1017.9 1017.8 0.0
30/12:00am 18.2 13.6 1.3 32 7.5 SE 15 26 8 14 1017.9 1017.8 0.0
 
Date/Time
WST
Temp
°C
App
Temp
°C
Dew
Point
°C
Rel
Hum
%
Delta-T
°C
Wind Press
QNH
hPa
Press
MSL
hPa
Rain since
9am
mm
Dir  Spd
km/h
Gust
km/h
Spd
kts
Gust
kts
29/11:30pm 19.0 14.0 1.1 30 8.0 SE 17 32 9 17 1017.8 1017.7 0.0
29/11:00pm 19.8 14.4 1.3 29 8.4 SE 19 28 10 15 1017.8 1017.7 0.0

Other formats

Comma delimited format used in spreadsheet applications
http://www.bom.gov.au/fwo/IDW60801/IDW60801.94200.axf

JavaScript Object Notation format (JSON) in row-major order
http://www.bom.gov.au/fwo/IDW60801/IDW60801.94200.json

Data quality

Most of these data are generated automatically and are frequently updated. Quality checks on data are not normally performed. It is possible for incorrect values to appear. Refer to information at About Latest Weather Observations and please check the disclaimer before using these data.